Time;durP1;ratioP1;P1;durP2;ratioP2;P2;SDS_P1;SDS_P2;PMS_P1;PMS_P2;Temp;Humidity;BMP_temperature;BMP_pressure;BME280_temperature;BME280_humidity;BME280_pressure;Samples;Min_cycle;Max_cycle;Signal;HPM_P1;HPM_P2
2023/11/05 00:04:04;;;;;;;3.25;1.77;;;;;;;;;;10254964;28;20035;-62
2023/11/05 00:09:04;;;;;;;4.40;1.83;;;;;;;;;;10249817;28;20035;-63
2023/11/05 00:14:05;;;;;;;3.90;1.73;;;;;;;;;;10250222;28;20402;-63
2023/11/05 00:19:06;;;;;;;5.55;1.80;;;;;;;;;;10248584;28;20534;-63
2023/11/05 00:24:07;;;;;;;1.70;1.50;;;;;;;;;;10249576;28;20417;-69
2023/11/05 00:29:08;;;;;;;2.10;1.42;;;;;;;;;;10246547;28;20034;-63
2023/11/05 00:34:08;;;;;;;4.28;1.27;;;;;;;;;;10246503;28;20364;-66
2023/11/05 00:39:09;;;;;;;1.70;1.30;;;;;;;;;;10246007;29;20047;-66
2023/11/05 00:44:10;;;;;;;3.45;1.42;;;;;;;;;;10248810;29;20475;-65
2023/11/05 00:49:13;;;;;;;2.53;1.50;;;;;;;;;;10249399;28;20059;-63
2023/11/05 00:54:14;;;;;;;2.25;1.40;;;;;;;;;;10246308;28;20122;-63
2023/11/05 00:59:14;;;;;;;2.42;1.65;;;;;;;;;;10247906;28;20046;-65
2023/11/05 01:04:15;;;;;;;4.38;1.40;;;;;;;;;;10242233;28;20042;-63
2023/11/05 01:09:15;;;;;;;3.40;1.35;;;;;;;;;;10249039;28;20031;-62
2023/11/05 01:14:16;;;;;;;1.30;1.20;;;;;;;;;;10247958;28;20082;-62
2023/11/05 01:19:16;;;;;;;3.85;1.75;;;;;;;;;;10246126;28;20043;-65
2023/11/05 01:24:17;;;;;;;7.50;1.40;;;;;;;;;;10246911;28;20031;-65
2023/11/05 01:29:18;;;;;;;2.13;1.40;;;;;;;;;;10246751;28;20509;-62
2023/11/05 01:34:18;;;;;;;2.63;1.40;;;;;;;;;;10245324;28;20031;-61
2023/11/05 01:39:20;;;;;;;2.65;1.20;;;;;;;;;;10261775;28;20023;-62
2023/11/05 01:44:20;;;;;;;1.40;1.30;;;;;;;;;;10246152;28;20058;-63
2023/11/05 01:49:21;;;;;;;2.75;1.60;;;;;;;;;;10245714;29;20046;-62
2023/11/05 01:54:22;;;;;;;1.98;1.30;;;;;;;;;;10245448;28;20043;-62
2023/11/05 01:59:22;;;;;;;2.00;1.27;;;;;;;;;;10234255;28;20086;-62
2023/11/05 02:04:23;;;;;;;2.25;1.10;;;;;;;;;;10232705;29;20523;-63
2023/11/05 02:09:24;;;;;;;1.90;1.27;;;;;;;;;;10243324;28;20023;-63
2023/11/05 02:14:24;;;;;;;1.58;1.20;;;;;;;;;;10242209;29;20047;-62
2023/11/05 02:19:25;;;;;;;2.40;1.23;;;;;;;;;;10245402;28;20035;-64
2023/11/05 02:24:26;;;;;;;1.33;1.10;;;;;;;;;;10242358;28;20094;-64
2023/11/05 02:29:26;;;;;;;1.25;1.15;;;;;;;;;;10243597;28;20126;-63
2023/11/05 02:34:27;;;;;;;1.65;1.42;;;;;;;;;;10239608;28;20050;-63
2023/11/05 02:39:27;;;;;;;1.85;1.17;;;;;;;;;;10241628;28;20118;-64
2023/11/05 02:44:28;;;;;;;1.38;1.20;;;;;;;;;;10243471;28;20039;-63
2023/11/05 02:49:28;;;;;;;5.28;1.33;;;;;;;;;;10243991;28;20031;-63
2023/11/05 02:54:30;;;;;;;3.00;1.67;;;;;;;;;;10229799;28;20047;-64
2023/11/05 02:59:31;;;;;;;1.27;1.17;;;;;;;;;;10241522;29;20031;-63
2023/11/05 03:04:31;;;;;;;5.57;1.10;;;;;;;;;;10242874;29;20047;-65
2023/11/05 03:09:32;;;;;;;2.90;1.25;;;;;;;;;;10243002;29;20031;-66
2023/11/05 03:14:33;;;;;;;1.40;1.10;;;;;;;;;;10242802;29;20035;-63
2023/11/05 03:19:33;;;;;;;3.33;1.35;;;;;;;;;;10238362;28;20059;-63
2023/11/05 03:24:34;;;;;;;2.83;1.13;;;;;;;;;;10218382;28;20034;-63
2023/11/05 03:29:35;;;;;;;1.27;1.13;;;;;;;;;;10233025;29;20383;-63
2023/11/05 03:34:36;;;;;;;1.95;1.00;;;;;;;;;;10236577;28;20071;-63
2023/11/05 03:39:37;;;;;;;3.28;1.10;;;;;;;;;;10242772;28;20090;-63
2023/11/05 03:44:37;;;;;;;2.53;1.33;;;;;;;;;;10251941;28;20122;-63
2023/11/05 03:49:38;;;;;;;1.80;1.15;;;;;;;;;;10247264;28;20028;-62
2023/11/05 03:54:39;;;;;;;1.88;1.10;;;;;;;;;;10260013;28;20038;-63
2023/11/05 03:59:39;;;;;;;2.35;1.20;;;;;;;;;;10248343;28;20027;-63
2023/11/05 04:04:40;;;;;;;1.33;1.23;;;;;;;;;;10250833;28;20050;-62
2023/11/05 04:09:40;;;;;;;1.52;1.35;;;;;;;;;;10249654;28;20027;-62
2023/11/05 04:14:41;;;;;;;1.73;1.10;;;;;;;;;;10250160;29;20111;-63
2023/11/05 04:19:42;;;;;;;3.13;1.15;;;;;;;;;;10248738;28;20035;-62
2023/11/05 04:24:42;;;;;;;2.22;1.17;;;;;;;;;;10248176;28;20023;-62
2023/11/05 04:29:43;;;;;;;1.08;1.00;;;;;;;;;;10252090;28;20027;-62
2023/11/05 04:34:43;;;;;;;1.17;1.08;;;;;;;;;;10249481;29;20058;-62
2023/11/05 04:39:44;;;;;;;1.00;0.90;;;;;;;;;;10245969;29;20037;-62
2023/11/05 04:44:45;;;;;;;0.93;0.93;;;;;;;;;;10249032;28;20039;-62
2023/11/05 04:49:45;;;;;;;1.95;1.17;;;;;;;;;;10248952;29;20032;-62
2023/11/05 04:54:46;;;;;;;1.98;1.10;;;;;;;;;;10248176;28;20031;-62
2023/11/05 04:59:47;;;;;;;1.63;0.95;;;;;;;;;;10243861;29;20047;-62
2023/11/05 05:04:47;;;;;;;0.98;0.98;;;;;;;;;;10247666;28;20049;-62
2023/11/05 05:09:48;;;;;;;3.33;1.27;;;;;;;;;;10247668;28;20027;-62
2023/11/05 05:14:49;;;;;;;1.70;1.00;;;;;;;;;;10248532;28;20043;-63
2023/11/05 05:19:49;;;;;;;1.30;1.20;;;;;;;;;;10248007;29;20039;-62
2023/11/05 05:24:50;;;;;;;1.10;1.10;;;;;;;;;;10247137;29;20031;-63
2023/11/05 05:29:52;;;;;;;1.27;1.00;;;;;;;;;;10245492;28;20035;-63
2023/11/05 05:34:53;;;;;;;0.80;0.80;;;;;;;;;;10246642;28;20035;-63
2023/11/05 05:39:53;;;;;;;0.90;0.85;;;;;;;;;;10244633;29;20054;-62
2023/11/05 05:44:54;;;;;;;1.00;1.00;;;;;;;;;;10242342;29;20476;-62
2023/11/05 05:49:54;;;;;;;1.08;1.00;;;;;;;;;;10234945;29;20511;-62
2023/11/05 05:54:56;;;;;;;3.22;1.02;;;;;;;;;;10246030;28;20031;-65
2023/11/05 05:59:56;;;;;;;8.20;1.13;;;;;;;;;;10244334;28;20035;-62
2023/11/05 06:04:57;;;;;;;1.40;1.15;;;;;;;;;;10245311;28;20054;-62
2023/11/05 06:09:58;;;;;;;2.15;1.17;;;;;;;;;;10246738;29;20075;-63
2023/11/05 06:15:00;;;;;;;1.00;1.00;;;;;;;;;;10240885;29;20130;-63
2023/11/05 06:20:01;;;;;;;1.55;1.10;;;;;;;;;;10246244;28;20063;-65
2023/11/05 06:25:02;;;;;;;0.82;0.82;;;;;;;;;;10245826;29;20031;-63
2023/11/05 06:30:07;;;;;;;0.90;0.88;;;;;;;;;;10245300;29;20038;-65
2023/11/05 06:35:08;;;;;;;0.80;0.80;;;;;;;;;;10244983;28;20043;-63
2023/11/05 06:40:10;;;;;;;2.17;1.10;;;;;;;;;;10226648;28;20031;-63
2023/11/05 06:45:10;;;;;;;0.80;0.80;;;;;;;;;;10240293;28;20059;-63
2023/11/05 06:50:11;;;;;;;0.90;0.80;;;;;;;;;;10240398;29;20387;-63
2023/11/05 06:55:12;;;;;;;0.80;0.80;;;;;;;;;;10240516;28;20031;-64
2023/11/05 07:00:13;;;;;;;4.45;1.10;;;;;;;;;;10245211;29;20023;-63
2023/11/05 07:05:15;;;;;;;6.00;0.98;;;;;;;;;;10244222;28;20035;-64
2023/11/05 07:10:15;;;;;;;1.13;0.90;;;;;;;;;;10240842;28;20032;-62
2023/11/05 07:15:18;;;;;;;1.35;1.20;;;;;;;;;;10258817;28;20027;-62
2023/11/05 07:20:18;;;;;;;1.10;1.00;;;;;;;;;;10248924;29;20047;-63
2023/11/05 07:25:19;;;;;;;0.82;0.82;;;;;;;;;;10251840;28;20093;-62
2023/11/05 07:30:20;;;;;;;0.80;0.70;;;;;;;;;;10250471;29;20034;-62
2023/11/05 07:35:20;;;;;;;0.88;0.88;;;;;;;;;;10252127;29;20046;-62
2023/11/05 07:40:21;;;;;;;1.65;1.10;;;;;;;;;;10251187;28;20027;-62
2023/11/05 07:45:22;;;;;;;1.15;1.00;;;;;;;;;;10250274;29;20122;-62
2023/11/05 07:50:25;;;;;;;1.48;1.00;;;;;;;;;;10248505;28;20066;-62
2023/11/05 07:55:26;;;;;;;2.15;1.08;;;;;;;;;;10243561;29;20091;-63
2023/11/05 08:00:26;;;;;;;1.55;1.02;;;;;;;;;;10233434;28;20093;-64
2023/11/05 08:05:27;;;;;;;0.73;0.73;;;;;;;;;;10251690;28;20486;-62
2023/11/05 08:10:28;;;;;;;0.90;0.90;;;;;;;;;;10250272;28;20031;-62
2023/11/05 08:15:29;;;;;;;1.08;0.85;;;;;;;;;;10237684;29;20101;-62
2023/11/05 08:20:29;;;;;;;0.88;0.88;;;;;;;;;;10245820;28;20554;-62
2023/11/05 08:25:30;;;;;;;1.15;1.02;;;;;;;;;;10249491;28;20043;-62
2023/11/05 08:30:30;;;;;;;1.13;0.82;;;;;;;;;;10250091;28;20046;-62
2023/11/05 08:35:31;;;;;;;0.90;0.90;;;;;;;;;;10250489;29;20668;-62
2023/11/05 08:40:32;;;;;;;2.92;0.85;;;;;;;;;;10249397;29;20527;-62
2023/11/05 08:45:32;;;;;;;0.88;0.88;;;;;;;;;;10249604;29;20609;-64
2023/11/05 08:50:33;;;;;;;1.67;0.73;;;;;;;;;;10247793;28;20411;-64
2023/11/05 08:55:37;;;;;;;0.85;0.85;;;;;;;;;;10249885;28;20039;-63
2023/11/05 09:00:38;;;;;;;1.52;0.82;;;;;;;;;;10248922;28;20039;-65
2023/11/05 09:05:40;;;;;;;2.17;1.05;;;;;;;;;;10235913;29;20125;-62
2023/11/05 09:10:41;;;;;;;0.70;0.70;;;;;;;;;;10249098;29;20027;-62
2023/11/05 09:15:41;;;;;;;1.08;1.00;;;;;;;;;;10245060;29;20071;-62
2023/11/05 09:20:42;;;;;;;0.88;0.88;;;;;;;;;;10247557;28;20514;-63
2023/11/05 09:25:43;;;;;;;0.90;0.80;;;;;;;;;;10247150;28;20044;-63
2023/11/05 09:30:45;;;;;;;0.70;0.70;;;;;;;;;;10246829;28;20520;-63
2023/11/05 09:35:45;;;;;;;1.13;0.80;;;;;;;;;;10247369;29;20521;-63
2023/11/05 09:40:47;;;;;;;1.00;0.90;;;;;;;;;;10246090;28;20035;-63
2023/11/05 09:45:52;;;;;;;0.90;0.90;;;;;;;;;;10246571;29;20109;-63
2023/11/05 09:50:53;;;;;;;0.70;0.70;;;;;;;;;;10244265;29;20054;-63
2023/11/05 09:55:54;;;;;;;1.60;0.70;;;;;;;;;;10239239;28;20050;-63
2023/11/05 10:00:55;;;;;;;1.13;0.85;;;;;;;;;;10246512;29;20054;-63
2023/11/05 10:06:04;;;;;;;1.25;0.90;;;;;;;;;;10243896;28;20503;-63
2023/11/05 10:11:05;;;;;;;8.70;1.08;;;;;;;;;;10246533;28;20035;-64
2023/11/05 10:16:13;;;;;;;1.58;0.70;;;;;;;;;;10245520;28;20073;-63
2023/11/05 10:21:21;;;;;;;0.70;0.70;;;;;;;;;;10237292;28;20078;-64
2023/11/05 10:26:34;;;;;;;15.20;0.90;;;;;;;;;;10248165;28;20531;-62
2023/11/05 10:31:36;;;;;;;0.70;0.70;;;;;;;;;;10250863;28;20035;-63
2023/11/05 10:36:36;;;;;;;0.80;0.80;;;;;;;;;;10242157;28;20035;-64
2023/11/05 10:41:38;;;;;;;0.70;0.70;;;;;;;;;;10247902;28;20550;-62
2023/11/05 10:46:55;;;;;;;0.80;0.80;;;;;;;;;;10239051;28;20385;-62
2023/11/05 10:52:05;;;;;;;0.80;0.80;;;;;;;;;;10242324;28;20128;-63
2023/11/05 10:57:46;;;;;;;4.03;1.13;;;;;;;;;;10242944;29;20028;-67
2023/11/05 11:02:48;;;;;;;11.27;1.00;;;;;;;;;;10240072;28;20114;-63
2023/11/05 11:07:50;;;;;;;1.52;1.08;;;;;;;;;;10242235;28;20032;-62
2023/11/05 11:12:51;;;;;;;2.22;0.88;;;;;;;;;;10242428;29;20125;-64
2023/11/05 11:17:53;;;;;;;1.48;0.85;;;;;;;;;;10242126;28;20094;-63
2023/11/05 11:23:05;;;;;;;8.90;1.40;;;;;;;;;;10242942;28;20082;-62
2023/11/05 11:28:10;;;;;;;2.95;1.20;;;;;;;;;;10241708;28;20031;-61
2023/11/05 11:33:23;;;;;;;1.73;0.90;;;;;;;;;;10243240;28;20047;-62
2023/11/05 11:38:33;;;;;;;8.30;1.10;;;;;;;;;;10241998;28;20031;-62
2023/11/05 11:43:33;;;;;;;7.10;1.17;;;;;;;;;;10239378;28;20383;-64
2023/11/05 11:48:34;;;;;;;9.65;1.23;;;;;;;;;;10249535;28;20035;-65
2023/11/05 11:53:41;;;;;;;2.60;0.80;;;;;;;;;;10254845;23;20070;-61
2023/11/05 11:58:42;;;;;;;14.23;1.45;;;;;;;;;;10218820;28;20031;-60
2023/11/05 12:03:44;;;;;;;11.70;1.20;;;;;;;;;;10221799;28;20034;-61
2023/11/05 12:08:46;;;;;;;9.50;1.38;;;;;;;;;;10241613;28;20023;-61
2023/11/05 12:13:47;;;;;;;9.45;1.10;;;;;;;;;;10244114;28;20414;-59
2023/11/05 12:18:50;;;;;;;4.13;1.58;;;;;;;;;;10229084;29;20041;-60
2023/11/05 12:23:53;;;;;;;2.65;1.55;;;;;;;;;;10236252;28;20027;-60
2023/11/05 12:28:54;;;;;;;4.25;2.08;;;;;;;;;;10240790;29;20142;-60
2023/11/05 12:33:55;;;;;;;8.85;2.33;;;;;;;;;;10236411;28;20039;-60
2023/11/05 12:38:56;;;;;;;9.25;2.85;;;;;;;;;;10247453;28;20031;-60
2023/11/05 12:43:57;;;;;;;3.97;2.30;;;;;;;;;;10247599;29;20024;-61
2023/11/05 12:48:57;;;;;;;3.92;2.65;;;;;;;;;;10243445;28;20048;-61
2023/11/05 12:53:58;;;;;;;5.68;2.78;;;;;;;;;;10241725;29;20126;-62
2023/11/05 12:58:59;;;;;;;4.68;2.67;;;;;;;;;;10241148;28;20039;-61
2023/11/05 13:04:00;;;;;;;3.83;2.40;;;;;;;;;;10246477;28;20031;-61
2023/11/05 13:09:01;;;;;;;3.80;2.13;;;;;;;;;;10229202;29;20543;-62
2023/11/05 13:14:04;;;;;;;8.50;2.28;;;;;;;;;;10216519;29;20595;-62
2023/11/05 13:19:05;;;;;;;3.90;1.92;;;;;;;;;;10217201;29;20043;-63
2023/11/05 13:24:05;;;;;;;4.18;2.30;;;;;;;;;;10239913;28;20038;-61
2023/11/05 13:29:06;;;;;;;4.50;2.00;;;;;;;;;;10246268;28;20031;-62
2023/11/05 13:34:07;;;;;;;7.63;2.60;;;;;;;;;;10246126;28;20039;-62
2023/11/05 13:39:11;;;;;;;7.85;2.22;;;;;;;;;;10241719;28;20039;-62
2023/11/05 13:44:11;;;;;;;4.97;2.40;;;;;;;;;;10242061;28;20047;-62
2023/11/05 13:49:12;;;;;;;7.30;2.60;;;;;;;;;;10237348;29;21153;-61
2023/11/05 13:54:13;;;;;;;3.03;2.20;;;;;;;;;;10239106;29;20480;-61
2023/11/05 13:59:14;;;;;;;7.53;1.88;;;;;;;;;;10226092;28;20039;-61
2023/11/05 14:04:15;;;;;;;8.77;2.00;;;;;;;;;;10233561;28;20497;-62
2023/11/05 14:09:18;;;;;;;3.75;1.63;;;;;;;;;;10240197;28;20031;-62
2023/11/05 14:14:19;;;;;;;4.78;2.00;;;;;;;;;;10227779;28;20027;-62
2023/11/05 14:19:20;;;;;;;2.08;1.80;;;;;;;;;;10226763;28;20391;-63
2023/11/05 14:24:21;;;;;;;2.58;1.67;;;;;;;;;;10223933;28;20039;-62
2023/11/05 14:29:22;;;;;;;1.88;1.77;;;;;;;;;;10233721;29;20391;-63
2023/11/05 14:34:23;;;;;;;2.08;1.55;;;;;;;;;;10233594;29;20023;-61
2023/11/05 14:39:24;;;;;;;3.65;1.70;;;;;;;;;;10248968;28;20019;-61
2023/11/05 14:44:25;;;;;;;3.47;1.75;;;;;;;;;;10224068;29;20781;-62
2023/11/05 14:49:25;;;;;;;2.90;1.70;;;;;;;;;;10243710;28;20027;-62
2023/11/05 14:54:26;;;;;;;5.03;2.00;;;;;;;;;;10241567;29;20052;-62
2023/11/05 14:59:27;;;;;;;3.47;1.80;;;;;;;;;;10238395;28;20066;-61
2023/11/05 15:04:28;;;;;;;2.33;1.60;;;;;;;;;;10243258;28;20534;-61
2023/11/05 15:09:29;;;;;;;1.92;1.70;;;;;;;;;;10239821;28;20062;-63
2023/11/05 15:14:30;;;;;;;2.08;1.52;;;;;;;;;;10241596;29;20058;-61
2023/11/05 15:19:31;;;;;;;2.78;1.60;;;;;;;;;;10239630;29;20032;-61
2023/11/05 15:24:31;;;;;;;3.65;1.60;;;;;;;;;;10239622;29;20491;-61
2023/11/05 15:29:32;;;;;;;1.63;1.50;;;;;;;;;;10234963;29;20023;-61
2023/11/05 15:34:34;;;;;;;5.65;1.77;;;;;;;;;;10239336;28;20035;-61
2023/11/05 15:39:34;;;;;;;4.72;1.98;;;;;;;;;;10247186;29;20043;-61
2023/11/05 15:44:36;;;;;;;2.00;1.65;;;;;;;;;;10233072;29;20371;-62
2023/11/05 15:49:36;;;;;;;2.83;2.03;;;;;;;;;;10247285;29;20046;-61
2023/11/05 15:54:41;;;;;;;10.38;2.58;;;;;;;;;;10248540;29;20146;-61
2023/11/05 15:59:42;;;;;;;6.40;2.08;;;;;;;;;;10248888;29;20364;-61
2023/11/05 16:04:42;;;;;;;3.25;2.17;;;;;;;;;;10238666;29;20039;-61
2023/11/05 16:09:43;;;;;;;9.27;2.17;;;;;;;;;;10242385;28;20023;-61
2023/11/05 16:14:43;;;;;;;5.47;2.28;;;;;;;;;;10246403;28;20038;-60
2023/11/05 16:19:44;;;;;;;3.80;1.95;;;;;;;;;;10244047;29;20031;-59
2023/11/05 16:24:48;;;;;;;5.20;1.60;;;;;;;;;;10237151;29;20089;-59
2023/11/05 16:29:49;;;;;;;2.78;1.77;;;;;;;;;;10238115;28;20116;-59
2023/11/05 16:34:52;;;;;;;1.88;1.63;;;;;;;;;;10241839;29;20471;-59
2023/11/05 16:39:53;;;;;;;2.92;1.85;;;;;;;;;;10223478;28;20058;-59
2023/11/05 16:44:54;;;;;;;4.40;1.90;;;;;;;;;;10242528;28;20043;-58
2023/11/05 16:49:54;;;;;;;3.22;1.75;;;;;;;;;;10238730;28;20035;-59
2023/11/05 16:54:55;;;;;;;2.15;1.60;;;;;;;;;;10250597;28;20039;-59
2023/11/05 16:59:56;;;;;;;2.40;1.60;;;;;;;;;;10251102;28;20042;-60
2023/11/05 17:04:57;;;;;;;2.28;1.40;;;;;;;;;;10249749;28;20036;-59
2023/11/05 17:09:58;;;;;;;3.80;1.80;;;;;;;;;;10259829;28;20039;-59
2023/11/05 17:15:02;;;;;;;2.65;1.63;;;;;;;;;;10236958;28;20395;-59
2023/11/05 17:20:06;;;;;;;2.50;1.70;;;;;;;;;;10263431;28;20648;-59
2023/11/05 17:25:08;;;;;;;2.17;1.58;;;;;;;;;;10253274;28;20039;-59
2023/11/05 17:30:09;;;;;;;3.88;1.58;;;;;;;;;;10256672;28;20395;-59
2023/11/05 17:35:10;;;;;;;2.13;1.60;;;;;;;;;;10241708;29;20140;-60
2023/11/05 17:40:12;;;;;;;2.10;1.40;;;;;;;;;;10248542;28;20031;-60
2023/11/05 17:45:13;;;;;;;3.58;1.52;;;;;;;;;;10244933;28;20035;-60
2023/11/05 17:50:13;;;;;;;2.90;1.48;;;;;;;;;;10249984;28;20039;-61
2023/11/05 17:55:14;;;;;;;4.15;1.50;;;;;;;;;;10245917;29;20043;-61
2023/11/05 18:00:15;;;;;;;1.80;1.50;;;;;;;;;;10253928;28;20039;-61
2023/11/05 18:05:16;;;;;;;1.85;1.50;;;;;;;;;;10249784;28;20058;-59
2023/11/05 18:10:18;;;;;;;4.53;2.55;;;;;;;;;;10243626;29;20057;-59
2023/11/05 18:15:18;;;;;;;1.55;1.42;;;;;;;;;;10223130;28;20028;-60
2023/11/05 18:20:19;;;;;;;3.50;1.60;;;;;;;;;;10230833;29;20039;-59
2023/11/05 18:25:19;;;;;;;3.13;1.35;;;;;;;;;;10238479;29;20070;-59
2023/11/05 18:30:20;;;;;;;2.08;1.70;;;;;;;;;;10246285;29;20412;-59
2023/11/05 18:35:21;;;;;;;1.92;1.40;;;;;;;;;;10229700;28;20484;-59
2023/11/05 18:40:21;;;;;;;1.30;1.20;;;;;;;;;;10244389;29;20616;-59
2023/11/05 18:45:22;;;;;;;1.98;1.45;;;;;;;;;;10245870;28;20034;-60
2023/11/05 18:50:23;;;;;;;3.38;1.50;;;;;;;;;;10220220;28;20087;-59
2023/11/05 18:55:24;;;;;;;3.10;1.80;;;;;;;;;;10244117;29;20035;-60
2023/11/05 19:00:25;;;;;;;1.65;1.30;;;;;;;;;;10238072;28;20050;-59
2023/11/05 19:05:26;;;;;;;1.58;1.48;;;;;;;;;;10207176;28;20039;-61
2023/11/05 19:10:27;;;;;;;1.65;1.50;;;;;;;;;;10253097;28;20122;-61
2023/11/05 19:15:28;;;;;;;2.38;1.85;;;;;;;;;;10252679;28;21223;-61
2023/11/05 19:20:30;;;;;;;5.57;2.08;;;;;;;;;;10249167;28;20031;-61
2023/11/05 19:25:31;;;;;;;3.95;2.30;;;;;;;;;;10249866;28;20042;-61
2023/11/05 19:30:32;;;;;;;3.78;2.08;;;;;;;;;;10247807;28;20026;-61
2023/11/05 19:35:32;;;;;;;2.67;2.20;;;;;;;;;;10252530;28;20039;-61
2023/11/05 19:40:34;;;;;;;2.60;2.10;;;;;;;;;;10248450;28;20027;-61
2023/11/05 19:45:34;;;;;;;2.50;2.30;;;;;;;;;;10256267;28;20066;-61
2023/11/05 19:50:35;;;;;;;3.33;2.08;;;;;;;;;;10244981;28;20664;-61
2023/11/05 19:55:35;;;;;;;2.20;2.00;;;;;;;;;;10249041;28;20587;-61
2023/11/05 20:00:37;;;;;;;2.35;1.98;;;;;;;;;;10262002;28;20058;-61
2023/11/05 20:05:38;;;;;;;7.28;2.10;;;;;;;;;;10254634;28;20511;-61
2023/11/05 20:10:38;;;;;;;2.35;1.95;;;;;;;;;;10228588;28;20039;-61
2023/11/05 20:15:39;;;;;;;2.67;1.90;;;;;;;;;;10223404;28;20531;-61
2023/11/05 20:20:39;;;;;;;8.90;2.70;;;;;;;;;;10220514;28;20479;-61
2023/11/05 20:25:40;;;;;;;3.42;1.90;;;;;;;;;;10240459;28;20035;-62
2023/11/05 20:30:40;;;;;;;3.30;2.22;;;;;;;;;;10246365;28;20061;-61
2023/11/05 20:35:41;;;;;;;3.85;2.20;;;;;;;;;;10240236;28;20464;-62
2023/11/05 20:40:42;;;;;;;2.63;2.20;;;;;;;;;;10223321;28;20121;-61
2023/11/05 20:45:42;;;;;;;2.65;2.03;;;;;;;;;;10229627;28;20028;-61
2023/11/05 20:50:43;;;;;;;1.90;1.75;;;;;;;;;;10242926;28;20027;-62
2023/11/05 20:55:44;;;;;;;2.05;1.83;;;;;;;;;;10249231;28;20044;-61
2023/11/05 21:00:44;;;;;;;3.60;1.95;;;;;;;;;;10251974;28;20039;-61
2023/11/05 21:05:45;;;;;;;2.10;1.95;;;;;;;;;;10249970;28;20047;-61
2023/11/05 21:10:45;;;;;;;5.10;2.05;;;;;;;;;;10247821;28;20030;-61
2023/11/05 21:15:46;;;;;;;3.30;1.90;;;;;;;;;;10239851;28;20086;-61
2023/11/05 21:20:46;;;;;;;1.77;1.67;;;;;;;;;;10240963;28;20034;-61
2023/11/05 21:25:47;;;;;;;2.10;1.90;;;;;;;;;;10235032;28;20027;-61
2023/11/05 21:30:48;;;;;;;2.60;2.10;;;;;;;;;;10251877;28;20039;-61
2023/11/05 21:35:48;;;;;;;2.42;2.05;;;;;;;;;;10249814;28;20475;-60
2023/11/05 21:40:49;;;;;;;2.25;1.83;;;;;;;;;;10244372;28;20739;-61
2023/11/05 21:45:50;;;;;;;2.33;2.00;;;;;;;;;;10241179;28;20039;-61
2023/11/05 21:50:51;;;;;;;4.13;2.20;;;;;;;;;;10248865;28;20062;-61
2023/11/05 21:55:51;;;;;;;2.88;1.90;;;;;;;;;;10243596;28;20046;-62
2023/11/05 22:00:52;;;;;;;2.47;2.03;;;;;;;;;;10253891;28;20031;-61
2023/11/05 22:05:53;;;;;;;3.53;2.40;;;;;;;;;;10237514;28;20036;-61
2023/11/05 22:10:54;;;;;;;2.53;2.20;;;;;;;;;;10237453;28;20055;-61
2023/11/05 22:15:54;;;;;;;4.75;2.53;;;;;;;;;;10240755;28;20046;-60
2023/11/05 22:20:56;;;;;;;2.50;2.30;;;;;;;;;;10241401;29;20042;-61
2023/11/05 22:25:56;;;;;;;5.10;2.08;;;;;;;;;;10241000;28;20034;-60
2023/11/05 22:30:57;;;;;;;3.58;2.45;;;;;;;;;;10245332;28;20467;-60
2023/11/05 22:35:57;;;;;;;2.97;2.08;;;;;;;;;;10240658;29;20514;-60
2023/11/05 22:40:58;;;;;;;4.78;2.10;;;;;;;;;;10237577;29;20038;-61
2023/11/05 22:46:00;;;;;;;2.10;1.92;;;;;;;;;;10243162;28;20034;-61
2023/11/05 22:51:01;;;;;;;3.65;1.83;;;;;;;;;;10245692;28;20035;-60
2023/11/05 22:56:02;;;;;;;3.33;2.22;;;;;;;;;;10244400;28;20523;-60
2023/11/05 23:01:03;;;;;;;3.58;2.22;;;;;;;;;;10243877;28;20054;-61
2023/11/05 23:06:05;;;;;;;3.63;2.22;;;;;;;;;;10243542;28;20035;-61
2023/11/05 23:11:05;;;;;;;6.57;2.50;;;;;;;;;;10244342;28;20363;-60
2023/11/05 23:16:08;;;;;;;4.75;2.65;;;;;;;;;;10242155;28;20044;-61
2023/11/05 23:21:09;;;;;;;4.35;2.22;;;;;;;;;;10243819;28;20090;-61
2023/11/05 23:26:09;;;;;;;5.20;2.20;;;;;;;;;;10242848;28;20039;-61
2023/11/05 23:31:10;;;;;;;2.45;2.25;;;;;;;;;;10240190;29;20583;-60
2023/11/05 23:36:11;;;;;;;10.32;2.20;;;;;;;;;;10245981;28;20023;-61
2023/11/05 23:41:13;;;;;;;32.85;3.03;;;;;;;;;;10242223;28;20031;-60
2023/11/05 23:46:14;;;;;;;4.30;2.38;;;;;;;;;;10241682;29;20031;-60
2023/11/05 23:51:15;;;;;;;5.30;2.50;;;;;;;;;;10242940;28;20399;-60
2023/11/05 23:56:16;;;;;;;3.58;2.60;;;;;;;;;;10241670;28;20102;-60
